Ubc Savannah — P3UW8 — position and weather

sailwx.info

Track history (hours):
 
Tides and Currents Weather Stations Pressure Air Temp Water Temp Dewpoint Dewpoint Depression Visibility Wind Speed Wind Dir Waves Ship Positions

Ubc Savannah

Last reported at 2017-Oct-27 22:24 UTC. Time now 2017-Nov-24 18:26 UTC.
Position N 11°07' W 074°52'.
Warning: this ship's position is 27 days out of date.

Length 172 m; draft 8.2 m.

Type: Cargo ship. MMSI: 209289000.

Date/timePositionNaut miles runAvg speedWind from/ knotsBaromVisibWave heightAir tempDewpointWater temp
2017-Oct-27 22:24N 11°07' W 074°52'4 9.8
2017-Oct-27 22:00N 11°03' W 074°50'6 0.2
2017-Oct-26 20:54N 10°60' W 074°46'0 0.0
2017-Oct-26 20:30N 10°60' W 074°46'0 0.0
2017-Oct-26 20:00N 10°60' W 074°46'0 0.0
2017-Oct-26 19:30N 10°60' W 074°46'0 0.0
2017-Oct-26 19:00N 10°60' W 074°46'0 0.0
2017-Oct-26 18:30N 10°60' W 074°46'0 0.0
2017-Oct-26 18:00N 10°60' W 074°46'0 0.0
2017-Oct-26 17:30N 10°60' W 074°46'0 0.0
2017-Oct-26 17:00N 10°60' W 074°46'0 0.0
2017-Oct-26 16:30N 10°60' W 074°46'0 0.0
2017-Oct-26 16:00N 10°60' W 074°46'0 0.0
2017-Oct-26 15:30N 10°60' W 074°46'0 0.0
2017-Oct-26 15:00N 10°60' W 074°46'0 0.0
2017-Oct-26 14:30N 10°60' W 074°46'0 0.0
2017-Oct-26 14:00N 10°60' W 074°46'0 0.0
2017-Oct-26 13:30N 10°60' W 074°46'0 0.0
2017-Oct-26 13:00N 10°60' W 074°46'0 0.0
2017-Oct-26 12:27N 10°60' W 074°46'0 0.0
2017-Oct-26 12:00N 10°60' W 074°46'0 0.0
2017-Oct-26 11:30N 10°60' W 074°46'0 0.0
2017-Oct-26 11:00N 10°60' W 074°46'0 0.0
2017-Oct-26 10:30N 10°60' W 074°46'0 0.0
2017-Oct-26 10:00N 10°60' W 074°46'0 0.1
2017-Oct-26 09:30N 10°60' W 074°46'0 0.0
2017-Oct-26 08:06N 10°60' W 074°46'0 0.0
2017-Oct-26 08:00N 10°60' W 074°46'0 0.0
2017-Oct-26 07:30N 10°60' W 074°46'0 0.0
2017-Oct-26 07:00N 10°59' W 074°46'0 0.0
2017-Oct-26 06:30N 10°60' W 074°46'0 0.0
2017-Oct-26 06:00N 10°60' W 074°46'0 0.0
2017-Oct-26 05:30N 10°60' W 074°46'0 0.0
2017-Oct-26 05:00N 10°60' W 074°46'0 0.0
2017-Oct-26 04:30N 10°60' W 074°46'0 0.0
2017-Oct-26 04:00N 10°60' W 074°46'0 0.0
2017-Oct-26 03:30N 10°60' W 074°46'0 0.0
2017-Oct-26 03:00N 10°60' W 074°46'0 0.0
2017-Oct-26 02:30N 10°60' W 074°46'0 0.0
2017-Oct-26 02:00N 10°60' W 074°46'0 0.0
2017-Oct-26 01:30N 10°59' W 074°46'0 0.0
2017-Oct-26 01:00N 10°60' W 074°46'0 0.0
2017-Oct-26 00:27N 10°60' W 074°46'0 0.0
2017-Oct-26 00:00N 10°60' W 074°46'0 0.0
2017-Oct-25 23:30N 10°60' W 074°46'0 0.1
2017-Oct-25 23:00N 10°60' W 074°46'0 0.0
2017-Oct-25 22:30N 10°60' W 074°46'0 0.0
2017-Oct-25 22:00N 10°60' W 074°46'0 0.0
2017-Oct-25 21:30N 10°60' W 074°46'0 0.0
2017-Oct-25 21:00N 10°60' W 074°46'0 0.0
2017-Oct-25 20:30N 10°60' W 074°46'0 0.0
2017-Oct-25 20:00N 10°60' W 074°46'0 0.0
2017-Oct-25 19:30N 10°60' W 074°46'0 0.0
2017-Oct-25 19:00N 10°60' W 074°46'0 0.0
2017-Oct-25 18:30N 10°60' W 074°46'0 0.0
2017-Oct-25 17:57N 10°60' W 074°46'0 0.0
2017-Oct-25 17:30N 10°60' W 074°46'0 0.0
2017-Oct-25 17:00N 10°60' W 074°46'0 0.0
2017-Oct-25 16:30N 10°60' W 074°46'0 0.0
2017-Oct-25 16:00N 10°60' W 074°46'0 0.0
2017-Oct-25 15:30N 10°60' W 074°46'0 0.0
2017-Oct-25 15:00N 10°60' W 074°46'0 0.0
2017-Oct-25 14:30N 10°60' W 074°46'0 0.0
2017-Oct-25 14:00N 10°60' W 074°46'0 0.0
2017-Oct-25 13:30N 10°60' W 074°46'0 0.0
2017-Oct-25 13:00N 10°60' W 074°46'0 0.0
2017-Oct-25 12:30N 10°60' W 074°46'0 0.0
2017-Oct-25 12:00N 10°60' W 074°46'0 0.0
2017-Oct-25 11:30N 10°60' W 074°46'0 0.0
2017-Oct-25 11:00N 10°60' W 074°46'0 0.4
2017-Oct-25 10:30N 10°60' W 074°46'3 6.0
2017-Oct-25 10:00N 11°02' W 074°48'1 2.2
2017-Oct-25 09:29N 11°02' W 074°49'0 0.0
2017-Oct-25 08:08N 11°02' W 074°49'0 0.0
2017-Oct-25 07:59N 11°02' W 074°49'0 0.0
2017-Oct-25 07:29N 11°02' W 074°49'0 0.0
2017-Oct-25 06:59N 11°02' W 074°49'0 0.0
2017-Oct-25 06:29N 11°02' W 074°49'0 0.0
2017-Oct-25 05:59N 11°02' W 074°49'0 0.0
2017-Oct-25 05:29N 11°02' W 074°49'0 0.0
2017-Oct-25 04:59N 11°02' W 074°49'0 0.0
2017-Oct-25 04:29N 11°02' W 074°49'0 0.0
2017-Oct-25 03:59N 11°02' W 074°49'0 0.0
2017-Oct-25 03:29N 11°02' W 074°49'0 0.0
2017-Oct-25 02:59N 11°02' W 074°49'0 0.0
2017-Oct-25 02:29N 11°02' W 074°49'0 0.0
2017-Oct-25 01:59N 11°02' W 074°49'0 0.0
2017-Oct-25 01:29N 11°02' W 074°49'0 0.0
2017-Oct-25 00:59N 11°02' W 074°49'0 0.0
2017-Oct-25 00:29N 11°02' W 074°49'0 0.0
2017-Oct-24 23:59N 11°02' W 074°49'0 0.0
2017-Oct-24 23:29N 11°02' W 074°49'0 0.0
2017-Oct-24 22:59N 11°02' W 074°49'0 0.0
2017-Oct-24 22:29N 11°02' W 074°49'0 0.0
2017-Oct-24 21:59N 11°02' W 074°49'0 0.0
2017-Oct-24 21:29N 11°02' W 074°49'0 0.0
2017-Oct-24 20:59N 11°02' W 074°49'0 0.0
2017-Oct-24 20:29N 11°02' W 074°49'0 0.0
2017-Oct-24 19:59N 11°02' W 074°49'0 0.0
2017-Oct-24 19:29N 11°02' W 074°49'0 0.0
2017-Oct-24 18:59N 11°02' W 074°49'0 0.0
2017-Oct-24 18:29N 11°02' W 074°49'0 0.0
2017-Oct-24 17:59N 11°02' W 074°49'0 0.0
2017-Oct-24 17:29N 11°02' W 074°49'0 0.0
2017-Oct-24 16:59N 11°02' W 074°49'0 0.0
2017-Oct-24 16:29N 11°02' W 074°49'0 0.0
2017-Oct-24 15:59N 11°02' W 074°49'0 0.0
2017-Oct-24 15:29N 11°02' W 074°49'0 0.0
2017-Oct-24 14:59N 11°02' W 074°49'0 0.0
2017-Oct-24 14:29N 11°02' W 074°49'0 0.0
2017-Oct-24 13:59N 11°02' W 074°49'0 0.0
2017-Oct-24 13:29N 11°02' W 074°49'0 0.0
2017-Oct-24 12:59N 11°02' W 074°49'0 0.0
2017-Oct-24 12:29N 11°02' W 074°49'0 0.0
2017-Oct-24 11:59N 11°02' W 074°49'0 0.0
2017-Oct-24 11:29N 11°02' W 074°49'0 0.0
2017-Oct-24 10:59N 11°02' W 074°49'0 0.0
2017-Oct-24 10:29N 11°02' W 074°49'0 0.0
2017-Oct-24 09:59N 11°02' W 074°49'0 0.0
2017-Oct-24 09:29N 11°02' W 074°49'0 0.0
2017-Oct-24 08:08N 11°02' W 074°49'0 0.0
2017-Oct-24 07:59N 11°02' W 074°49'0 0.0
2017-Oct-24 07:29N 11°02' W 074°49'0 0.0
2017-Oct-24 06:59N 11°02' W 074°49'0 0.0
2017-Oct-24 06:29N 11°02' W 074°49'0 0.0
2017-Oct-24 05:59N 11°02' W 074°49'0 0.0
2017-Oct-24 05:29N 11°02' W 074°49'0 0.0
2017-Oct-24 04:59N 11°02' W 074°49'0 0.0
2017-Oct-24 04:29N 11°02' W 074°49'0 0.0
2017-Oct-24 03:59N 11°02' W 074°49'0 0.0
2017-Oct-24 03:29N 11°02' W 074°49'0 0.0
2017-Oct-24 02:59N 11°02' W 074°49'0 0.0
2017-Oct-24 02:29N 11°02' W 074°49'0 0.0
2017-Oct-24 01:59N 11°02' W 074°49'0 0.0
2017-Oct-24 01:29N 11°02' W 074°49'0 0.0
2017-Oct-24 00:59N 11°02' W 074°49'0 0.0
2017-Oct-24 00:29N 11°02' W 074°49'0 0.0
2017-Oct-23 23:59N 11°02' W 074°49'0 0.0
2017-Oct-23 23:29N 11°02' W 074°49'0 0.0
2017-Oct-23 22:59N 11°02' W 074°49'0 0.0
2017-Oct-23 22:29N 11°02' W 074°49'0 0.0
2017-Oct-23 21:59N 11°02' W 074°49'0 0.0
2017-Oct-23 21:29N 11°02' W 074°49'0 0.0
2017-Oct-23 20:59N 11°02' W 074°49'0 0.0
2017-Oct-23 20:29N 11°02' W 074°49'0 0.0
2017-Oct-23 19:59N 11°02' W 074°49'0 0.0
2017-Oct-23 19:29N 11°02' W 074°49'0 0.0
2017-Oct-23 18:59N 11°02' W 074°49'0 0.0
2017-Oct-23 18:29N 11°02' W 074°49'0 0.0
2017-Oct-23 17:59N 11°02' W 074°49'0 0.0
2017-Oct-23 17:29N 11°02' W 074°49'0 0.0
2017-Oct-23 16:59N 11°02' W 074°49'0 0.0
2017-Oct-23 16:29N 11°02' W 074°49'0 0.0
2017-Oct-23 15:59N 11°02' W 074°49'0 0.0
2017-Oct-23 15:29N 11°02' W 074°49'0 0.0
2017-Oct-23 14:59N 11°02' W 074°49'0 0.0
2017-Oct-23 14:29N 11°02' W 074°49'0 0.0
2017-Oct-23 13:59N 11°02' W 074°49'0 0.0
2017-Oct-23 13:29N 11°02' W 074°49'0 0.0
2017-Oct-23 12:59N 11°02' W 074°49'0 0.0
2017-Oct-23 12:29N 11°02' W 074°49'0 0.0
2017-Oct-23 11:59N 11°02' W 074°49'0 0.0
2017-Oct-23 11:29N 11°02' W 074°49'0 0.0
2017-Oct-23 10:59N 11°02' W 074°49'0 0.0
2017-Oct-23 10:29N 11°02' W 074°49'0 0.0
2017-Oct-23 09:59N 11°02' W 074°49'0 0.0
2017-Oct-23 09:29N 11°02' W 074°49'0 0.0
2017-Oct-23 08:08N 11°02' W 074°49'0 0.0
2017-Oct-23 07:59N 11°02' W 074°49'0 0.0
2017-Oct-23 07:29N 11°02' W 074°49'0 0.0
2017-Oct-23 06:59N 11°02' W 074°49'0 0.0
2017-Oct-23 06:29N 11°02' W 074°49'0 0.0
2017-Oct-23 05:59N 11°02' W 074°49'0 0.0
2017-Oct-23 05:29N 11°02' W 074°49'0 0.0
2017-Oct-23 04:59N 11°02' W 074°49'0 0.0
2017-Oct-23 04:29N 11°02' W 074°49'0 0.0
2017-Oct-23 03:59N 11°02' W 074°49'0 0.0
2017-Oct-23 03:29N 11°02' W 074°49'0 0.0
2017-Oct-23 02:59N 11°02' W 074°49'0 0.0
2017-Oct-23 02:29N 11°02' W 074°49'0 0.0
2017-Oct-23 01:59N 11°02' W 074°49'0 0.0
2017-Oct-23 01:29N 11°02' W 074°49'0 0.0
2017-Oct-23 00:59N 11°02' W 074°49'0 0.0
2017-Oct-23 00:29N 11°02' W 074°49'0 0.0
2017-Oct-22 23:59N 11°02' W 074°49'0 0.0
2017-Oct-22 23:29N 11°02' W 074°49'0 0.0
2017-Oct-22 22:59N 11°02' W 074°49'0 0.0
2017-Oct-22 22:29N 11°02' W 074°49'0 0.0
2017-Oct-22 21:59N 11°02' W 074°49'0 0.0
2017-Oct-22 21:29N 11°02' W 074°49'0 0.0
2017-Oct-22 20:59N 11°02' W 074°49'0 0.0
2017-Oct-22 20:29N 11°02' W 074°49'0 0.0
2017-Oct-22 19:59N 11°02' W 074°49'0 0.0
2017-Oct-22 19:29N 11°02' W 074°49'0 0.0
2017-Oct-22 18:59N 11°02' W 074°49'0 0.0
2017-Oct-22 18:29N 11°02' W 074°49'0 0.0
2017-Oct-22 17:59N 11°02' W 074°49'0 0.0
2017-Oct-22 17:29N 11°02' W 074°49'0 0.0
2017-Oct-22 16:59N 11°02' W 074°49'0 0.0
2017-Oct-22 16:29N 11°02' W 074°49'0 0.0
2017-Oct-22 15:59N 11°02' W 074°49'0 0.0
2017-Oct-22 15:29N 11°02' W 074°49'0 0.0
2017-Oct-22 14:59N 11°02' W 074°49'0 0.0
2017-Oct-22 14:29N 11°02' W 074°49'0 0.0
2017-Oct-22 13:59N 11°02' W 074°49'0 0.0
2017-Oct-22 13:29N 11°02' W 074°49'0 0.0
2017-Oct-22 12:59N 11°02' W 074°49'0 0.0
2017-Oct-22 12:29N 11°02' W 074°49'0 0.0
2017-Oct-22 11:59N 11°02' W 074°49'0 0.0
2017-Oct-22 11:29N 11°02' W 074°49'0 0.0
2017-Oct-22 10:59N 11°02' W 074°49'0 0.0
2017-Oct-22 10:29N 11°02' W 074°49'0 0.0
2017-Oct-22 09:59N 11°02' W 074°49'0 0.0
2017-Oct-22 09:29N 11°02' W 074°49'0 0.0
2017-Oct-22 08:08N 11°02' W 074°49'0 0.0
2017-Oct-22 07:53N 11°02' W 074°49'0 0.0
2017-Oct-22 07:29N 11°02' W 074°49'0 0.0
2017-Oct-22 06:59N 11°02' W 074°49'0 0.0
2017-Oct-22 06:29N 11°02' W 074°49'0 0.0
2017-Oct-22 05:59N 11°02' W 074°49'0 0.0
2017-Oct-22 05:29N 11°02' W 074°49'0 0.0
2017-Oct-22 04:59N 11°02' W 074°49'0 0.0
2017-Oct-22 04:29N 11°02' W 074°49'0 0.0
2017-Oct-22 03:59N 11°02' W 074°49'0 0.0
2017-Oct-22 03:29N 11°02' W 074°49'0 0.0
2017-Oct-22 02:59N 11°02' W 074°49'0 0.0
2017-Oct-22 02:29N 11°02' W 074°49'0 0.0
2017-Oct-22 01:59N 11°02' W 074°49'0 0.0
2017-Oct-22 01:29N 11°02' W 074°49'0 0.0
2017-Oct-22 00:59N 11°02' W 074°49'0 0.0
2017-Oct-22 00:29N 11°02' W 074°49'0 0.0
2017-Oct-21 23:59N 11°02' W 074°49'0 0.0
2017-Oct-21 23:29N 11°02' W 074°49'0 0.0
2017-Oct-21 22:59N 11°02' W 074°49'0 0.0
2017-Oct-21 22:29N 11°02' W 074°49'0 0.0
2017-Oct-21 21:59N 11°02' W 074°49'0 0.0
2017-Oct-21 21:29N 11°02' W 074°49'0 0.0
2017-Oct-21 20:59N 11°02' W 074°49'0 0.0
2017-Oct-21 20:23N 11°02' W 074°49'0 0.0
2017-Oct-21 19:59N 11°02' W 074°49'0 0.0
2017-Oct-21 19:29N 11°02' W 074°49'0 0.0
2017-Oct-21 18:59N 11°02' W 074°49'0 0.0
2017-Oct-21 18:29N 11°02' W 074°49'0 0.0
2017-Oct-21 17:59N 11°02' W 074°49'0 0.0
2017-Oct-21 17:29N 11°02' W 074°49'0 0.0
2017-Oct-21 16:59N 11°02' W 074°49'0 0.0
2017-Oct-21 16:29N 11°02' W 074°49'0 0.0
2017-Oct-21 15:59N 11°02' W 074°49'0 0.0
2017-Oct-21 15:29N 11°02' W 074°49'0 0.0
2017-Oct-21 14:59N 11°02' W 074°49'0 0.0
2017-Oct-21 14:29N 11°02' W 074°49'0 0.0
2017-Oct-21 13:29N 11°02' W 074°49'0 0.0
2017-Oct-21 12:59N 11°02' W 074°49'0 0.0
2017-Oct-21 12:29N 11°02' W 074°49'0 0.0
2017-Oct-21 11:59N 11°02' W 074°49'0 0.0
2017-Oct-21 11:29N 11°02' W 074°49'0 0.0
2017-Oct-21 10:59N 11°02' W 074°49'0 0.0
2017-Oct-21 10:29N 11°02' W 074°49'0 0.0
2017-Oct-21 09:59N 11°02' W 074°49'0 0.0
2017-Oct-21 09:29N 11°02' W 074°49'0 0.0
2017-Oct-21 08:08N 11°02' W 074°49'0 0.0
2017-Oct-21 07:59N 11°02' W 074°49'0 0.0
2017-Oct-21 07:29N 11°02' W 074°49'0 0.0
2017-Oct-21 06:59N 11°02' W 074°49'0 0.0
2017-Oct-21 06:29N 11°02' W 074°49'0 0.0
2017-Oct-21 05:59N 11°02' W 074°49'0 0.0
2017-Oct-21 05:29N 11°02' W 074°49'0 0.0
2017-Oct-21 04:59N 11°02' W 074°49'0 0.0
2017-Oct-21 04:29N 11°02' W 074°49'0 0.0
2017-Oct-21 03:59N 11°02' W 074°49'0 0.0
2017-Oct-21 03:29N 11°02' W 074°49'0 0.0
2017-Oct-21 02:59N 11°02' W 074°49'0 0.0
2017-Oct-21 02:29N 11°02' W 074°49'0 0.0
2017-Oct-21 01:59N 11°02' W 074°49'0 0.0
2017-Oct-21 01:29N 11°02' W 074°49'0 0.0
2017-Oct-21 00:59N 11°02' W 074°49'0 0.0
2017-Oct-21 00:29N 11°02' W 074°49'0 0.0
2017-Oct-20 23:59N 11°02' W 074°49'0 0.0
2017-Oct-20 23:29N 11°02' W 074°49'0 0.0
2017-Oct-20 22:58N 11°02' W 074°49'0 0.0
2017-Oct-20 22:28N 11°02' W 074°49'0 0.0
2017-Oct-20 21:58N 11°02' W 074°49'0 0.0
2017-Oct-20 21:28N 11°02' W 074°49'0 0.0
2017-Oct-20 20:58N 11°02' W 074°49'0 0.0
2017-Oct-20 20:28N 11°02' W 074°49'0 0.0
2017-Oct-20 19:58N 11°02' W 074°49'0 0.0
2017-Oct-20 19:28N 11°02' W 074°49'0 0.0
2017-Oct-20 18:58N 11°02' W 074°49'0 0.0
2017-Oct-20 18:28N 11°02' W 074°49'0 0.0
2017-Oct-20 17:58N 11°02' W 074°49'0 0.0
2017-Oct-20 17:28N 11°02' W 074°49'0 0.0
2017-Oct-20 16:58N 11°02' W 074°49'0 0.0
2017-Oct-20 16:28N 11°02' W 074°49'0 0.0
2017-Oct-20 15:58N 11°02' W 074°49'0 0.0
2017-Oct-20 15:28N 11°02' W 074°49'0 0.0
2017-Oct-20 14:58N 11°02' W 074°49'0 0.0
2017-Oct-20 13:58N 11°02' W 074°49'0 0.0
2017-Oct-20 13:28N 11°02' W 074°49'0 0.0
2017-Oct-20 12:58N 11°02' W 074°49'0 0.0
2017-Oct-20 12:28N 11°02' W 074°49'0 0.0
2017-Oct-20 11:58N 11°02' W 074°49'0 0.0
2017-Oct-20 11:28N 11°02' W 074°49'0 0.0
2017-Oct-20 10:58N 11°02' W 074°49'0 0.0
2017-Oct-20 10:28N 11°02' W 074°49'0 0.0
2017-Oct-20 09:58N 11°02' W 074°49'0 0.0
2017-Oct-20 09:28N 11°02' W 074°49'0 0.0
2017-Oct-20 08:07N 11°02' W 074°49'0 0.0
2017-Oct-20 07:58N 11°02' W 074°49'0 0.0
2017-Oct-20 07:28N 11°02' W 074°49'0 0.0
2017-Oct-20 06:58N 11°02' W 074°49'0 0.0
2017-Oct-20 06:28N 11°02' W 074°49'0 0.0
2017-Oct-20 05:58N 11°02' W 074°49'0 0.0
2017-Oct-20 05:28N 11°02' W 074°49'0 0.0
2017-Oct-20 04:58N 11°02' W 074°49'0 0.0
2017-Oct-20 04:28N 11°02' W 074°49'0 0.0
2017-Oct-20 03:58N 11°02' W 074°49'0 0.0
2017-Oct-20 03:28N 11°02' W 074°49'0 0.0
2017-Oct-20 02:58N 11°02' W 074°49'0 0.0
2017-Oct-20 02:28N 11°02' W 074°49'0 0.0
2017-Oct-20 01:58N 11°02' W 074°49'0 0.0
2017-Oct-20 01:28N 11°02' W 074°49'0 0.0
2017-Oct-20 00:58N 11°02' W 074°49'0 0.0
2017-Oct-20 00:28N 11°02' W 074°49'0 0.0
2017-Oct-19 23:58N 11°02' W 074°49'0 0.0
2017-Oct-19 23:28N 11°02' W 074°49'0 0.0
2017-Oct-19 22:58N 11°02' W 074°49'0 0.0
2017-Oct-19 22:28N 11°02' W 074°49'0 0.0
2017-Oct-19 21:58N 11°02' W 074°49'0 0.0
2017-Oct-19 21:28N 11°02' W 074°49'0 0.0
2017-Oct-19 20:58N 11°02' W 074°49'0 0.0
2017-Oct-19 20:28N 11°02' W 074°49'0 0.0
2017-Oct-19 19:58N 11°02' W 074°49'0 0.0
2017-Oct-19 19:28N 11°02' W 074°49'0 0.0
2017-Oct-19 18:58N 11°02' W 074°49'0 0.0
2017-Oct-19 18:28N 11°02' W 074°49'0 0.0
2017-Oct-19 17:58N 11°02' W 074°49'0 0.0
2017-Oct-19 17:28N 11°02' W 074°49'0 0.0
2017-Oct-19 16:58N 11°02' W 074°49'0 0.0
2017-Oct-19 16:28N 11°02' W 074°49'0 0.0
2017-Oct-19 15:58N 11°02' W 074°49'0 0.0
2017-Oct-19 15:28N 11°02' W 074°49'0 0.0
2017-Oct-19 14:58N 11°02' W 074°49'0 0.0
2017-Oct-19 14:28N 11°02' W 074°49'0 0.0
2017-Oct-19 13:58N 11°02' W 074°49'0 0.0
2017-Oct-19 13:28N 11°02' W 074°49'0 0.0
2017-Oct-19 12:58N 11°02' W 074°49'0 0.0
2017-Oct-19 12:28N 11°02' W 074°49'0 0.0
2017-Oct-19 11:58N 11°02' W 074°49'0 0.0
2017-Oct-19 11:28N 11°02' W 074°49'0 0.0
2017-Oct-19 10:58N 11°02' W 074°49'0 0.0
2017-Oct-19 10:28N 11°02' W 074°49'0 0.0
2017-Oct-19 09:58N 11°02' W 074°49'0 0.0
2017-Oct-19 09:28N 11°02' W 074°49'0 0.0
2017-Oct-19 08:07N 11°02' W 074°49'0 0.0
2017-Oct-19 07:58N 11°02' W 074°49'0 0.0
2017-Oct-19 07:28N 11°02' W 074°49'0 0.0
2017-Oct-19 06:58N 11°02' W 074°49'0 0.0
2017-Oct-19 06:28N 11°02' W 074°49'0 0.0
2017-Oct-19 05:58N 11°02' W 074°49'0 0.0
2017-Oct-19 05:28N 11°02' W 074°49'0 0.0
2017-Oct-19 04:58N 11°02' W 074°49'0 0.0
2017-Oct-19 04:28N 11°02' W 074°49'0 0.0
2017-Oct-19 03:58N 11°02' W 074°49'0 0.0
2017-Oct-19 03:28N 11°02' W 074°49'0 0.0
2017-Oct-19 02:58N 11°02' W 074°49'0 0.0
2017-Oct-19 02:28N 11°02' W 074°49'0 0.0
2017-Oct-19 01:58N 11°02' W 074°49'0 0.0
2017-Oct-19 01:28N 11°02' W 074°49'0 0.0
2017-Oct-18 23:07N 11°02' W 074°49'0 0.0
2017-Oct-18 22:58N 11°02' W 074°49'0 0.0
2017-Oct-18 22:28N 11°02' W 074°49'0 0.0
2017-Oct-18 21:58N 11°02' W 074°49'0 0.0
2017-Oct-18 21:28N 11°02' W 074°49'0 0.0
2017-Oct-18 20:58N 11°02' W 074°49'0 0.0
2017-Oct-18 20:28N 11°02' W 074°49'0 0.0
2017-Oct-18 19:58N 11°02' W 074°49'0 0.0
2017-Oct-18 19:28N 11°02' W 074°49'0 0.0
2017-Oct-18 18:58N 11°02' W 074°49'0 0.0
2017-Oct-18 18:28N 11°02' W 074°49'0 0.0
2017-Oct-18 17:58N 11°02' W 074°49'0 0.0
2017-Oct-18 17:28N 11°02' W 074°49'0 0.0
2017-Oct-18 16:58N 11°02' W 074°49'0 0.0
2017-Oct-18 16:28N 11°02' W 074°49'0 0.0
2017-Oct-18 15:58N 11°02' W 074°49'0 0.0
2017-Oct-18 15:28N 11°02' W 074°49'0 0.0
2017-Oct-18 14:58N 11°02' W 074°49'0 0.0
2017-Oct-18 13:58N 11°02' W 074°49'0 0.0
2017-Oct-18 13:28N 11°02' W 074°49'0 0.0
2017-Oct-18 12:58N 11°02' W 074°49'0 0.0
2017-Oct-18 12:28N 11°02' W 074°49'0 0.0
2017-Oct-18 11:58N 11°02' W 074°49'0 0.0
2017-Oct-17 23:04N 11°02' W 074°49'0 0.0
2017-Oct-17 22:58N 11°02' W 074°49'0 0.0
2017-Oct-17 22:28N 11°02' W 074°49'  
Track history (hours):
 
Tides and Currents Weather Stations Pressure Air Temp Water Temp Dewpoint Dewpoint Depression Visibility Wind Speed Wind Dir Waves Ship Positions

Ubc Savannah

Last reported at 2017-Oct-27 22:24 UTC. Time now 2017-Nov-24 18:26 UTC.
Position N 11°07' W 074°52'.
Warning: this ship's position is 27 days out of date.

Length 172 m; draft 8.2 m.

Type: Cargo ship. MMSI: 209289000.

Date/timePositionNaut miles runAvg speedWind from/ knotsBaromVisibWave heightAir tempDewpointWater temp
2017-Oct-27 22:24N 11°07' W 074°52'4 9.8
2017-Oct-27 22:00N 11°03' W 074°50'6 0.2
2017-Oct-26 20:54N 10°60' W 074°46'0 0.0
2017-Oct-26 20:30N 10°60' W 074°46'0 0.0
2017-Oct-26 20:00N 10°60' W 074°46'0 0.0
2017-Oct-26 19:30N 10°60' W 074°46'0 0.0
2017-Oct-26 19:00N 10°60' W 074°46'0 0.0
2017-Oct-26 18:30N 10°60' W 074°46'0 0.0
2017-Oct-26 18:00N 10°60' W 074°46'0 0.0
2017-Oct-26 17:30N 10°60' W 074°46'0 0.0
2017-Oct-26 17:00N 10°60' W 074°46'0 0.0
2017-Oct-26 16:30N 10°60' W 074°46'0 0.0
2017-Oct-26 16:00N 10°60' W 074°46'0 0.0
2017-Oct-26 15:30N 10°60' W 074°46'0 0.0
2017-Oct-26 15:00N 10°60' W 074°46'0 0.0
2017-Oct-26 14:30N 10°60' W 074°46'0 0.0
2017-Oct-26 14:00N 10°60' W 074°46'0 0.0
2017-Oct-26 13:30N 10°60' W 074°46'0 0.0
2017-Oct-26 13:00N 10°60' W 074°46'0 0.0
2017-Oct-26 12:27N 10°60' W 074°46'0 0.0
2017-Oct-26 12:00N 10°60' W 074°46'0 0.0
2017-Oct-26 11:30N 10°60' W 074°46'0 0.0
2017-Oct-26 11:00N 10°60' W 074°46'0 0.0
2017-Oct-26 10:30N 10°60' W 074°46'0 0.0
2017-Oct-26 10:00N 10°60' W 074°46'0 0.1
2017-Oct-26 09:30N 10°60' W 074°46'0 0.0
2017-Oct-26 08:06N 10°60' W 074°46'0 0.0
2017-Oct-26 08:00N 10°60' W 074°46'0 0.0
2017-Oct-26 07:30N 10°60' W 074°46'0 0.0
2017-Oct-26 07:00N 10°59' W 074°46'0 0.0
2017-Oct-26 06:30N 10°60' W 074°46'0 0.0
2017-Oct-26 06:00N 10°60' W 074°46'0 0.0
2017-Oct-26 05:30N 10°60' W 074°46'0 0.0
2017-Oct-26 05:00N 10°60' W 074°46'0 0.0
2017-Oct-26 04:30N 10°60' W 074°46'0 0.0
2017-Oct-26 04:00N 10°60' W 074°46'0 0.0
2017-Oct-26 03:30N 10°60' W 074°46'0 0.0
2017-Oct-26 03:00N 10°60' W 074°46'0 0.0
2017-Oct-26 02:30N 10°60' W 074°46'0 0.0
2017-Oct-26 02:00N 10°60' W 074°46'0 0.0
2017-Oct-26 01:30N 10°59' W 074°46'0 0.0
2017-Oct-26 01:00N 10°60' W 074°46'0 0.0
2017-Oct-26 00:27N 10°60' W 074°46'0 0.0
2017-Oct-26 00:00N 10°60' W 074°46'0 0.0
2017-Oct-25 23:30N 10°60' W 074°46'0 0.1
2017-Oct-25 23:00N 10°60' W 074°46'0 0.0
2017-Oct-25 22:30N 10°60' W 074°46'0 0.0
2017-Oct-25 22:00N 10°60' W 074°46'0 0.0
2017-Oct-25 21:30N 10°60' W 074°46'0 0.0
2017-Oct-25 21:00N 10°60' W 074°46'0 0.0
2017-Oct-25 20:30N 10°60' W 074°46'0 0.0
2017-Oct-25 20:00N 10°60' W 074°46'0 0.0
2017-Oct-25 19:30N 10°60' W 074°46'0 0.0
2017-Oct-25 19:00N 10°60' W 074°46'0 0.0
2017-Oct-25 18:30N 10°60' W 074°46'0 0.0
2017-Oct-25 17:57N 10°60' W 074°46'0 0.0
2017-Oct-25 17:30N 10°60' W 074°46'0 0.0
2017-Oct-25 17:00N 10°60' W 074°46'0 0.0
2017-Oct-25 16:30N 10°60' W 074°46'0 0.0
2017-Oct-25 16:00N 10°60' W 074°46'0 0.0
2017-Oct-25 15:30N 10°60' W 074°46'0 0.0
2017-Oct-25 15:00N 10°60' W 074°46'0 0.0
2017-Oct-25 14:30N 10°60' W 074°46'0 0.0
2017-Oct-25 14:00N 10°60' W 074°46'0 0.0
2017-Oct-25 13:30N 10°60' W 074°46'0 0.0
2017-Oct-25 13:00N 10°60' W 074°46'0 0.0
2017-Oct-25 12:30N 10°60' W 074°46'0 0.0
2017-Oct-25 12:00N 10°60' W 074°46'0 0.0
2017-Oct-25 11:30N 10°60' W 074°46'0 0.0
2017-Oct-25 11:00N 10°60' W 074°46'0 0.4
2017-Oct-25 10:30N 10°60' W 074°46'3 6.0
2017-Oct-25 10:00N 11°02' W 074°48'1 2.2
2017-Oct-25 09:29N 11°02' W 074°49'0 0.0
2017-Oct-25 08:08N 11°02' W 074°49'0 0.0
2017-Oct-25 07:59N 11°02' W 074°49'0 0.0
2017-Oct-25 07:29N 11°02' W 074°49'0 0.0
2017-Oct-25 06:59N 11°02' W 074°49'0 0.0
2017-Oct-25 06:29N 11°02' W 074°49'0 0.0
2017-Oct-25 05:59N 11°02' W 074°49'0 0.0
2017-Oct-25 05:29N 11°02' W 074°49'0 0.0
2017-Oct-25 04:59N 11°02' W 074°49'0 0.0
2017-Oct-25 04:29N 11°02' W 074°49'0 0.0
2017-Oct-25 03:59N 11°02' W 074°49'0 0.0
2017-Oct-25 03:29N 11°02' W 074°49'0 0.0
2017-Oct-25 02:59N 11°02' W 074°49'0 0.0
2017-Oct-25 02:29N 11°02' W 074°49'0 0.0
2017-Oct-25 01:59N 11°02' W 074°49'0 0.0
2017-Oct-25 01:29N 11°02' W 074°49'0 0.0
2017-Oct-25 00:59N 11°02' W 074°49'0 0.0
2017-Oct-25 00:29N 11°02' W 074°49'0 0.0
2017-Oct-24 23:59N 11°02' W 074°49'0 0.0
2017-Oct-24 23:29N 11°02' W 074°49'0 0.0
2017-Oct-24 22:59N 11°02' W 074°49'0 0.0
2017-Oct-24 22:29N 11°02' W 074°49'0 0.0
2017-Oct-24 21:59N 11°02' W 074°49'0 0.0
2017-Oct-24 21:29N 11°02' W 074°49'0 0.0
2017-Oct-24 20:59N 11°02' W 074°49'0 0.0
2017-Oct-24 20:29N 11°02' W 074°49'0 0.0
2017-Oct-24 19:59N 11°02' W 074°49'0 0.0
2017-Oct-24 19:29N 11°02' W 074°49'0 0.0
2017-Oct-24 18:59N 11°02' W 074°49'0 0.0
2017-Oct-24 18:29N 11°02' W 074°49'0 0.0
2017-Oct-24 17:59N 11°02' W 074°49'0 0.0
2017-Oct-24 17:29N 11°02' W 074°49'0 0.0
2017-Oct-24 16:59N 11°02' W 074°49'0 0.0
2017-Oct-24 16:29N 11°02' W 074°49'0 0.0
2017-Oct-24 15:59N 11°02' W 074°49'0 0.0
2017-Oct-24 15:29N 11°02' W 074°49'0 0.0
2017-Oct-24 14:59N 11°02' W 074°49'0 0.0
2017-Oct-24 14:29N 11°02' W 074°49'0 0.0
2017-Oct-24 13:59N 11°02' W 074°49'0 0.0
2017-Oct-24 13:29N 11°02' W 074°49'0 0.0
2017-Oct-24 12:59N 11°02' W 074°49'0 0.0
2017-Oct-24 12:29N 11°02' W 074°49'0 0.0
2017-Oct-24 11:59N 11°02' W 074°49'0 0.0
2017-Oct-24 11:29N 11°02' W 074°49'0 0.0
2017-Oct-24 10:59N 11°02' W 074°49'0 0.0
2017-Oct-24 10:29N 11°02' W 074°49'0 0.0
2017-Oct-24 09:59N 11°02' W 074°49'0 0.0
2017-Oct-24 09:29N 11°02' W 074°49'0 0.0
2017-Oct-24 08:08N 11°02' W 074°49'0 0.0
2017-Oct-24 07:59N 11°02' W 074°49'0 0.0
2017-Oct-24 07:29N 11°02' W 074°49'0 0.0
2017-Oct-24 06:59N 11°02' W 074°49'0 0.0
2017-Oct-24 06:29N 11°02' W 074°49'0 0.0
2017-Oct-24 05:59N 11°02' W 074°49'0 0.0
2017-Oct-24 05:29N 11°02' W 074°49'0 0.0
2017-Oct-24 04:59N 11°02' W 074°49'0 0.0
2017-Oct-24 04:29N 11°02' W 074°49'0 0.0
2017-Oct-24 03:59N 11°02' W 074°49'0 0.0
2017-Oct-24 03:29N 11°02' W 074°49'0 0.0
2017-Oct-24 02:59N 11°02' W 074°49'0 0.0
2017-Oct-24 02:29N 11°02' W 074°49'0 0.0
2017-Oct-24 01:59N 11°02' W 074°49'0 0.0
2017-Oct-24 01:29N 11°02' W 074°49'0 0.0
2017-Oct-24 00:59N 11°02' W 074°49'0 0.0
2017-Oct-24 00:29N 11°02' W 074°49'0 0.0
2017-Oct-23 23:59N 11°02' W 074°49'0 0.0
2017-Oct-23 23:29N 11°02' W 074°49'0 0.0
2017-Oct-23 22:59N 11°02' W 074°49'0 0.0
2017-Oct-23 22:29N 11°02' W 074°49'0 0.0
2017-Oct-23 21:59N 11°02' W 074°49'0 0.0
2017-Oct-23 21:29N 11°02' W 074°49'0 0.0
2017-Oct-23 20:59N 11°02' W 074°49'0 0.0
2017-Oct-23 20:29N 11°02' W 074°49'0 0.0
2017-Oct-23 19:59N 11°02' W 074°49'0 0.0
2017-Oct-23 19:29N 11°02' W 074°49'0 0.0
2017-Oct-23 18:59N 11°02' W 074°49'0 0.0
2017-Oct-23 18:29N 11°02' W 074°49'0 0.0
2017-Oct-23 17:59N 11°02' W 074°49'0 0.0
2017-Oct-23 17:29N 11°02' W 074°49'0 0.0
2017-Oct-23 16:59N 11°02' W 074°49'0 0.0
2017-Oct-23 16:29N 11°02' W 074°49'0 0.0
2017-Oct-23 15:59N 11°02' W 074°49'0 0.0
2017-Oct-23 15:29N 11°02' W 074°49'0 0.0
2017-Oct-23 14:59N 11°02' W 074°49'0 0.0
2017-Oct-23 14:29N 11°02' W 074°49'0 0.0
2017-Oct-23 13:59N 11°02' W 074°49'0 0.0
2017-Oct-23 13:29N 11°02' W 074°49'0 0.0
2017-Oct-23 12:59N 11°02' W 074°49'0 0.0
2017-Oct-23 12:29N 11°02' W 074°49'0 0.0
2017-Oct-23 11:59N 11°02' W 074°49'0 0.0
2017-Oct-23 11:29N 11°02' W 074°49'0 0.0
2017-Oct-23 10:59N 11°02' W 074°49'0 0.0
2017-Oct-23 10:29N 11°02' W 074°49'0 0.0
2017-Oct-23 09:59N 11°02' W 074°49'0 0.0
2017-Oct-23 09:29N 11°02' W 074°49'0 0.0
2017-Oct-23 08:08N 11°02' W 074°49'0 0.0
2017-Oct-23 07:59N 11°02' W 074°49'0 0.0
2017-Oct-23 07:29N 11°02' W 074°49'0 0.0
2017-Oct-23 06:59N 11°02' W 074°49'0 0.0
2017-Oct-23 06:29N 11°02' W 074°49'0 0.0
2017-Oct-23 05:59N 11°02' W 074°49'0 0.0
2017-Oct-23 05:29N 11°02' W 074°49'0 0.0
2017-Oct-23 04:59N 11°02' W 074°49'0 0.0
2017-Oct-23 04:29N 11°02' W 074°49'0 0.0
2017-Oct-23 03:59N 11°02' W 074°49'0 0.0
2017-Oct-23 03:29N 11°02' W 074°49'0 0.0
2017-Oct-23 02:59N 11°02' W 074°49'0 0.0
2017-Oct-23 02:29N 11°02' W 074°49'0 0.0
2017-Oct-23 01:59N 11°02' W 074°49'0 0.0
2017-Oct-23 01:29N 11°02' W 074°49'0 0.0
2017-Oct-23 00:59N 11°02' W 074°49'0 0.0
2017-Oct-23 00:29N 11°02' W 074°49'0 0.0
2017-Oct-22 23:59N 11°02' W 074°49'0 0.0
2017-Oct-22 23:29N 11°02' W 074°49'0 0.0
2017-Oct-22 22:59N 11°02' W 074°49'0 0.0
2017-Oct-22 22:29N 11°02' W 074°49'0 0.0
2017-Oct-22 21:59N 11°02' W 074°49'0 0.0
2017-Oct-22 21:29N 11°02' W 074°49'0 0.0
2017-Oct-22 20:59N 11°02' W 074°49'0 0.0
2017-Oct-22 20:29N 11°02' W 074°49'0 0.0
2017-Oct-22 19:59N 11°02' W 074°49'0 0.0
2017-Oct-22 19:29N 11°02' W 074°49'0 0.0
2017-Oct-22 18:59N 11°02' W 074°49'0 0.0
2017-Oct-22 18:29N 11°02' W 074°49'0 0.0
2017-Oct-22 17:59N 11°02' W 074°49'0 0.0
2017-Oct-22 17:29N 11°02' W 074°49'0 0.0
2017-Oct-22 16:59N 11°02' W 074°49'0 0.0
2017-Oct-22 16:29N 11°02' W 074°49'0 0.0
2017-Oct-22 15:59N 11°02' W 074°49'0 0.0
2017-Oct-22 15:29N 11°02' W 074°49'0 0.0
2017-Oct-22 14:59N 11°02' W 074°49'0 0.0
2017-Oct-22 14:29N 11°02' W 074°49'0 0.0
2017-Oct-22 13:59N 11°02' W 074°49'0 0.0
2017-Oct-22 13:29N 11°02' W 074°49'0 0.0
2017-Oct-22 12:59N 11°02' W 074°49'0 0.0
2017-Oct-22 12:29N 11°02' W 074°49'0 0.0
2017-Oct-22 11:59N 11°02' W 074°49'0 0.0
2017-Oct-22 11:29N 11°02' W 074°49'0 0.0
2017-Oct-22 10:59N 11°02' W 074°49'0 0.0
2017-Oct-22 10:29N 11°02' W 074°49'0 0.0
2017-Oct-22 09:59N 11°02' W 074°49'0 0.0
2017-Oct-22 09:29N 11°02' W 074°49'0 0.0
2017-Oct-22 08:08N 11°02' W 074°49'0 0.0
2017-Oct-22 07:53N 11°02' W 074°49'0 0.0
2017-Oct-22 07:29N 11°02' W 074°49'0 0.0
2017-Oct-22 06:59N 11°02' W 074°49'0 0.0
2017-Oct-22 06:29N 11°02' W 074°49'0 0.0
2017-Oct-22 05:59N 11°02' W 074°49'0 0.0
2017-Oct-22 05:29N 11°02' W 074°49'0 0.0
2017-Oct-22 04:59N 11°02' W 074°49'0 0.0
2017-Oct-22 04:29N 11°02' W 074°49'0 0.0
2017-Oct-22 03:59N 11°02' W 074°49'0 0.0
2017-Oct-22 03:29N 11°02' W 074°49'0 0.0
2017-Oct-22 02:59N 11°02' W 074°49'0 0.0
2017-Oct-22 02:29N 11°02' W 074°49'0 0.0
2017-Oct-22 01:59N 11°02' W 074°49'0 0.0
2017-Oct-22 01:29N 11°02' W 074°49'0 0.0
2017-Oct-22 00:59N 11°02' W 074°49'0 0.0
2017-Oct-22 00:29N 11°02' W 074°49'0 0.0
2017-Oct-21 23:59N 11°02' W 074°49'0 0.0
2017-Oct-21 23:29N 11°02' W 074°49'0 0.0
2017-Oct-21 22:59N 11°02' W 074°49'0 0.0
2017-Oct-21 22:29N 11°02' W 074°49'0 0.0
2017-Oct-21 21:59N 11°02' W 074°49'0 0.0
2017-Oct-21 21:29N 11°02' W 074°49'0 0.0
2017-Oct-21 20:59N 11°02' W 074°49'0 0.0
2017-Oct-21 20:23N 11°02' W 074°49'0 0.0
2017-Oct-21 19:59N 11°02' W 074°49'0 0.0
2017-Oct-21 19:29N 11°02' W 074°49'0 0.0
2017-Oct-21 18:59N 11°02' W 074°49'0 0.0
2017-Oct-21 18:29N 11°02' W 074°49'0 0.0
2017-Oct-21 17:59N 11°02' W 074°49'0 0.0
2017-Oct-21 17:29N 11°02' W 074°49'0 0.0
2017-Oct-21 16:59N 11°02' W 074°49'0 0.0
2017-Oct-21 16:29N 11°02' W 074°49'0 0.0
2017-Oct-21 15:59N 11°02' W 074°49'0 0.0
2017-Oct-21 15:29N 11°02' W 074°49'0 0.0
2017-Oct-21 14:59N 11°02' W 074°49'0 0.0
2017-Oct-21 14:29N 11°02' W 074°49'0 0.0
2017-Oct-21 13:29N 11°02' W 074°49'0 0.0
2017-Oct-21 12:59N 11°02' W 074°49'0 0.0
2017-Oct-21 12:29N 11°02' W 074°49'0 0.0
2017-Oct-21 11:59N 11°02' W 074°49'0 0.0
2017-Oct-21 11:29N 11°02' W 074°49'0 0.0
2017-Oct-21 10:59N 11°02' W 074°49'0 0.0
2017-Oct-21 10:29N 11°02' W 074°49'0 0.0
2017-Oct-21 09:59N 11°02' W 074°49'0 0.0
2017-Oct-21 09:29N 11°02' W 074°49'0 0.0
2017-Oct-21 08:08N 11°02' W 074°49'0 0.0
2017-Oct-21 07:59N 11°02' W 074°49'0 0.0
2017-Oct-21 07:29N 11°02' W 074°49'0 0.0
2017-Oct-21 06:59N 11°02' W 074°49'0 0.0
2017-Oct-21 06:29N 11°02' W 074°49'0 0.0
2017-Oct-21 05:59N 11°02' W 074°49'0 0.0
2017-Oct-21 05:29N 11°02' W 074°49'0 0.0
2017-Oct-21 04:59N 11°02' W 074°49'0 0.0
2017-Oct-21 04:29N 11°02' W 074°49'0 0.0
2017-Oct-21 03:59N 11°02' W 074°49'0 0.0
2017-Oct-21 03:29N 11°02' W 074°49'0 0.0
2017-Oct-21 02:59N 11°02' W 074°49'0 0.0
2017-Oct-21 02:29N 11°02' W 074°49'0 0.0
2017-Oct-21 01:59N 11°02' W 074°49'0 0.0
2017-Oct-21 01:29N 11°02' W 074°49'0 0.0
2017-Oct-21 00:59N 11°02' W 074°49'0 0.0
2017-Oct-21 00:29N 11°02' W 074°49'0 0.0
2017-Oct-20 23:59N 11°02' W 074°49'0 0.0
2017-Oct-20 23:29N 11°02' W 074°49'0 0.0
2017-Oct-20 22:58N 11°02' W 074°49'0 0.0
2017-Oct-20 22:28N 11°02' W 074°49'0 0.0
2017-Oct-20 21:58N 11°02' W 074°49'0 0.0
2017-Oct-20 21:28N 11°02' W 074°49'0 0.0
2017-Oct-20 20:58N 11°02' W 074°49'0 0.0
2017-Oct-20 20:28N 11°02' W 074°49'0 0.0
2017-Oct-20 19:58N 11°02' W 074°49'0 0.0
2017-Oct-20 19:28N 11°02' W 074°49'0 0.0
2017-Oct-20 18:58N 11°02' W 074°49'0 0.0
2017-Oct-20 18:28N 11°02' W 074°49'0 0.0
2017-Oct-20 17:58N 11°02' W 074°49'0 0.0
2017-Oct-20 17:28N 11°02' W 074°49'0 0.0
2017-Oct-20 16:58N 11°02' W 074°49'0 0.0
2017-Oct-20 16:28N 11°02' W 074°49'0 0.0
2017-Oct-20 15:58N 11°02' W 074°49'0 0.0
2017-Oct-20 15:28N 11°02' W 074°49'0 0.0
2017-Oct-20 14:58N 11°02' W 074°49'0 0.0
2017-Oct-20 13:58N 11°02' W 074°49'0 0.0
2017-Oct-20 13:28N 11°02' W 074°49'0 0.0
2017-Oct-20 12:58N 11°02' W 074°49'0 0.0
2017-Oct-20 12:28N 11°02' W 074°49'0 0.0
2017-Oct-20 11:58N 11°02' W 074°49'0 0.0
2017-Oct-20 11:28N 11°02' W 074°49'0 0.0
2017-Oct-20 10:58N 11°02' W 074°49'0 0.0
2017-Oct-20 10:28N 11°02' W 074°49'0 0.0
2017-Oct-20 09:58N 11°02' W 074°49'0 0.0
2017-Oct-20 09:28N 11°02' W 074°49'0 0.0
2017-Oct-20 08:07N 11°02' W 074°49'0 0.0
2017-Oct-20 07:58N 11°02' W 074°49'0 0.0
2017-Oct-20 07:28N 11°02' W 074°49'0 0.0
2017-Oct-20 06:58N 11°02' W 074°49'0 0.0
2017-Oct-20 06:28N 11°02' W 074°49'0 0.0
2017-Oct-20 05:58N 11°02' W 074°49'0 0.0
2017-Oct-20 05:28N 11°02' W 074°49'0 0.0
2017-Oct-20 04:58N 11°02' W 074°49'0 0.0
2017-Oct-20 04:28N 11°02' W 074°49'0 0.0
2017-Oct-20 03:58N 11°02' W 074°49'0 0.0
2017-Oct-20 03:28N 11°02' W 074°49'0 0.0
2017-Oct-20 02:58N 11°02' W 074°49'0 0.0
2017-Oct-20 02:28N 11°02' W 074°49'0 0.0
2017-Oct-20 01:58N 11°02' W 074°49'0 0.0
2017-Oct-20 01:28N 11°02' W 074°49'0 0.0
2017-Oct-20 00:58N 11°02' W 074°49'0 0.0
2017-Oct-20 00:28N 11°02' W 074°49'0 0.0
2017-Oct-19 23:58N 11°02' W 074°49'0 0.0
2017-Oct-19 23:28N 11°02' W 074°49'0 0.0
2017-Oct-19 22:58N 11°02' W 074°49'0 0.0
2017-Oct-19 22:28N 11°02' W 074°49'0 0.0
2017-Oct-19 21:58N 11°02' W 074°49'0 0.0
2017-Oct-19 21:28N 11°02' W 074°49'0 0.0
2017-Oct-19 20:58N 11°02' W 074°49'0 0.0
2017-Oct-19 20:28N 11°02' W 074°49'0 0.0
2017-Oct-19 19:58N 11°02' W 074°49'0 0.0
2017-Oct-19 19:28N 11°02' W 074°49'0 0.0
2017-Oct-19 18:58N 11°02' W 074°49'0 0.0
2017-Oct-19 18:28N 11°02' W 074°49'0 0.0
2017-Oct-19 17:58N 11°02' W 074°49'0 0.0
2017-Oct-19 17:28N 11°02' W 074°49'0 0.0
2017-Oct-19 16:58N 11°02' W 074°49'0 0.0
2017-Oct-19 16:28N 11°02' W 074°49'0 0.0
2017-Oct-19 15:58N 11°02' W 074°49'0 0.0
2017-Oct-19 15:28N 11°02' W 074°49'0 0.0
2017-Oct-19 14:58N 11°02' W 074°49'0 0.0
2017-Oct-19 14:28N 11°02' W 074°49'0 0.0
2017-Oct-19 13:58N 11°02' W 074°49'0 0.0
2017-Oct-19 13:28N 11°02' W 074°49'0 0.0
2017-Oct-19 12:58N 11°02' W 074°49'0 0.0
2017-Oct-19 12:28N 11°02' W 074°49'0 0.0
2017-Oct-19 11:58N 11°02' W 074°49'0 0.0
2017-Oct-19 11:28N 11°02' W 074°49'0 0.0
2017-Oct-19 10:58N 11°02' W 074°49'0 0.0
2017-Oct-19 10:28N 11°02' W 074°49'0 0.0
2017-Oct-19 09:58N 11°02' W 074°49'0 0.0
2017-Oct-19 09:28N 11°02' W 074°49'0 0.0
2017-Oct-19 08:07N 11°02' W 074°49'0 0.0
2017-Oct-19 07:58N 11°02' W 074°49'0 0.0
2017-Oct-19 07:28N 11°02' W 074°49'0 0.0
2017-Oct-19 06:58N 11°02' W 074°49'0 0.0
2017-Oct-19 06:28N 11°02' W 074°49'0 0.0
2017-Oct-19 05:58N 11°02' W 074°49'0 0.0
2017-Oct-19 05:28N 11°02' W 074°49'0 0.0
2017-Oct-19 04:58N 11°02' W 074°49'0 0.0
2017-Oct-19 04:28N 11°02' W 074°49'0 0.0
2017-Oct-19 03:58N 11°02' W 074°49'0 0.0
2017-Oct-19 03:28N 11°02' W 074°49'0 0.0
2017-Oct-19 02:58N 11°02' W 074°49'0 0.0
2017-Oct-19 02:28N 11°02' W 074°49'0 0.0
2017-Oct-19 01:58N 11°02' W 074°49'0 0.0
2017-Oct-19 01:28N 11°02' W 074°49'0 0.0
2017-Oct-18 23:07N 11°02' W 074°49'0 0.0
2017-Oct-18 22:58N 11°02' W 074°49'0 0.0
2017-Oct-18 22:28N 11°02' W 074°49'0 0.0
2017-Oct-18 21:58N 11°02' W 074°49'0 0.0
2017-Oct-18 21:28N 11°02' W 074°49'0 0.0
2017-Oct-18 20:58N 11°02' W 074°49'0 0.0
2017-Oct-18 20:28N 11°02' W 074°49'0 0.0
2017-Oct-18 19:58N 11°02' W 074°49'0 0.0
2017-Oct-18 19:28N 11°02' W 074°49'0 0.0
2017-Oct-18 18:58N 11°02' W 074°49'0 0.0
2017-Oct-18 18:28N 11°02' W 074°49'0 0.0
2017-Oct-18 17:58N 11°02' W 074°49'0 0.0
2017-Oct-18 17:28N 11°02' W 074°49'0 0.0
2017-Oct-18 16:58N 11°02' W 074°49'0 0.0
2017-Oct-18 16:28N 11°02' W 074°49'0 0.0
2017-Oct-18 15:58N 11°02' W 074°49'0 0.0
2017-Oct-18 15:28N 11°02' W 074°49'0 0.0
2017-Oct-18 14:58N 11°02' W 074°49'0 0.0
2017-Oct-18 13:58N 11°02' W 074°49'0 0.0
2017-Oct-18 13:28N 11°02' W 074°49'0 0.0
2017-Oct-18 12:58N 11°02' W 074°49'0 0.0
2017-Oct-18 12:28N 11°02' W 074°49'0 0.0
2017-Oct-18 11:58N 11°02' W 074°49'0 0.0
2017-Oct-17 23:04N 11°02' W 074°49'0 0.0
2017-Oct-17 22:58N 11°02' W 074°49'0 0.0
2017-Oct-17 22:28N 11°02' W 074°49'  

Dump ship's entire track history